Terminal Aerodrome Forecast
Issued by NWS

Home | Current Version | Previous Version | Text Only | Print | Product List | Glossary On
Versions: 1 2 3 4 5 6 7 8 9 10 11 12 13
094
FTUS45 KABQ 250530
TAFGUP
TAF
KGUP 250530Z 2506/2606 VRB05KT P6SM BKN130
     FM251500 07008KT P6SM FEW140
     FM251900 10010KT P6SM VCSH BKN090
     FM252100 12011KT P6SM VCTS SCT080CB BKN120
     FM260000 14010KT P6SM VCSH BKN090
     FM260400 VRB05KT P6SM BKN100=

USA.gov is the U.S. government's official web portal to all federal, state and local government web resources and services.